Time;durP1;ratioP1;P1;durP2;ratioP2;P2;SDS_P1;SDS_P2;PMS_P1;PMS_P2;Temp;Humidity;BMP_temperature;BMP_pressure;BME280_temperature;BME280_humidity;BME280_pressure;Samples;Min_cycle;Max_cycle;Signal;HPM_P1;HPM_P2
2022/11/20 00:00:04;;;;;;;371.37;166.53;;;;;;;12.45;100.00;99012.31;325333;30;2325;-77
2022/11/20 00:00:16;;;;;;;371.98;167.20;;;;;;;12.46;100.00;99005.28;322274;30;2538;-77
2022/11/20 00:00:26;;;;;;;376.75;167.15;;;;;;;12.45;100.00;99012.31;321090;30;845;-77
2022/11/20 00:00:37;;;;;;;377.40;166.53;;;;;;;12.43;100.00;99011.56;321912;30;1747;-77
2022/11/20 00:00:48;;;;;;;376.40;164.53;;;;;;;12.45;100.00;99022.81;323223;30;1172;-76
2022/11/20 00:01:12;;;;;;;377.88;166.75;;;;;;;12.45;100.00;99024.59;323176;30;2310;-75
2022/11/20 00:01:24;;;;;;;375.80;160.45;;;;;;;12.44;100.00;99026.38;317424;31;921;-76
2022/11/20 00:01:35;;;;;;;373.63;159.02;;;;;;;12.44;100.00;99020.28;314149;31;3104;-75
2022/11/20 00:01:45;;;;;;;376.58;162.07;;;;;;;12.43;100.00;99026.47;315162;30;3184;-76
2022/11/20 00:01:55;;;;;;;377.33;162.97;;;;;;;12.43;100.00;99021.22;316424;31;997;-75
2022/11/20 00:02:06;;;;;;;375.67;161.70;;;;;;;12.43;100.00;99018.59;312851;31;2914;-75
2022/11/20 00:02:16;;;;;;;372.25;161.02;;;;;;;12.42;100.00;99011.66;313568;31;2681;-75
2022/11/20 00:02:27;;;;;;;376.00;163.03;;;;;;;12.40;100.00;99005.66;314184;31;921;-76
2022/11/20 00:02:38;;;;;;;379.45;166.43;;;;;;;12.41;100.00;99007.34;319545;30;2993;-78
2022/11/20 00:02:49;;;;;;;380.83;167.55;;;;;;;12.42;100.00;99003.78;321058;30;2268;-76
2022/11/20 00:02:59;;;;;;;375.33;166.43;;;;;;;12.42;100.00;98994.13;320594;30;2268;-76
2022/11/20 00:03:09;;;;;;;373.20;166.50;;;;;;;12.42;100.00;98991.50;316356;31;1437;-76
2022/11/20 00:03:20;;;;;;;376.70;164.55;;;;;;;12.42;100.00;98986.25;315000;31;2532;-76
2022/11/20 00:03:30;;;;;;;381.97;168.57;;;;;;;12.38;100.00;98983.91;312474;31;3569;-76
2022/11/20 00:03:41;;;;;;;383.85;168.80;;;;;;;12.38;100.00;98984.75;316451;31;886;-76
2022/11/20 00:03:52;;;;;;;384.30;168.57;;;;;;;12.39;100.00;98985.59;314596;31;4705;-75
2022/11/20 00:04:04;;;;;;;384.33;169.13;;;;;;;12.37;100.00;98987.47;314634;31;4000;-75
2022/11/20 00:04:14;;;;;;;381.00;169.27;;;;;;;12.37;100.00;98983.06;313913;31;3555;-76
2022/11/20 00:04:25;;;;;;;382.10;172.00;;;;;;;12.35;100.00;98978.81;310873;31;1088;-76
2022/11/20 00:04:35;;;;;;;382.30;168.93;;;;;;;12.35;100.00;98981.44;307629;31;3344;-76
2022/11/20 00:04:46;;;;;;;383.00;168.93;;;;;;;12.35;100.00;98990.16;304435;31;3616;-76
2022/11/20 00:04:56;;;;;;;382.10;169.60;;;;;;;12.33;100.00;98987.63;307424;32;2962;-75
2022/11/20 00:05:07;;;;;;;384.73;173.18;;;;;;;12.32;100.00;98983.31;308440;31;3219;-75
2022/11/20 00:05:18;;;;;;;384.92;173.70;;;;;;;12.31;100.00;98988.66;306164;32;3289;-76
2022/11/20 00:05:28;;;;;;;381.77;170.93;;;;;;;12.29;100.00;98986.13;304015;32;3476;-76
2022/11/20 00:05:38;;;;;;;382.47;169.47;;;;;;;12.30;100.00;98990.44;305171;32;1239;-75
2022/11/20 00:05:49;;;;;;;382.53;171.30;;;;;;;12.34;100.00;98993.72;302174;32;4536;-77
2022/11/20 00:06:03;;;;;;;380.77;171.85;;;;;;;12.38;100.00;98997.03;300135;32;5006;-76
2022/11/20 00:06:15;;;;;;;378.08;167.52;;;;;;;12.38;100.00;98997.03;297588;32;5600;-75
2022/11/20 00:06:26;;;;;;;381.83;168.95;;;;;;;12.38;100.00;98995.25;300089;32;1378;-76
2022/11/20 00:06:36;;;;;;;380.27;169.93;;;;;;;12.39;100.00;99006.59;294773;32;5432;-76
2022/11/20 00:06:47;;;;;;;377.37;170.67;;;;;;;12.35;100.00;98997.19;294934;33;3518;-76
2022/11/20 00:06:57;;;;;;;373.67;168.93;;;;;;;12.32;100.00;99006.94;296193;33;818;-76
2022/11/20 00:07:07;;;;;;;374.10;168.87;;;;;;;12.31;100.00;99002.63;289195;34;1409;-76
2022/11/20 00:07:18;;;;;;;372.48;165.57;;;;;;;12.29;100.00;98996.63;285429;34;4310;-75
2022/11/20 00:07:28;;;;;;;371.63;165.10;;;;;;;12.28;100.00;99005.41;282375;34;4332;-75
2022/11/20 00:07:39;;;;;;;374.92;167.45;;;;;;;12.28;100.00;99000.16;284472;34;1489;-76
2022/11/20 00:07:49;;;;;;;377.90;170.20;;;;;;;12.27;100.00;98993.22;286931;34;5074;-76
2022/11/20 00:07:59;;;;;;;376.50;165.15;;;;;;;12.29;100.00;98995.78;283901;34;6054;-75
2022/11/20 00:08:10;;;;;;;373.73;159.73;;;;;;;12.31;100.00;98988.66;280898;35;1338;-75
2022/11/20 00:08:21;;;;;;;372.20;159.43;;;;;;;12.32;100.00;98995.59;282210;34;7333;-75
2022/11/20 00:08:31;;;;;;;378.50;167.20;;;;;;;12.35;100.00;98991.94;280944;34;8775;-76
2022/11/20 00:08:41;;;;;;;378.05;168.93;;;;;;;12.36;100.00;98993.63;278505;35;965;-74
2022/11/20 00:08:54;;;;;;;377.43;169.60;;;;;;;12.37;100.00;99003.19;272270;35;7251;-75
2022/11/20 00:09:05;;;;;;;373.52;166.80;;;;;;;12.37;100.00;99003.19;274500;35;5405;-75
2022/11/20 00:09:15;;;;;;;373.08;167.85;;;;;;;12.39;100.00;99006.59;274265;35;5483;-75
2022/11/20 00:09:25;;;;;;;373.17;168.10;;;;;;;12.40;100.00;99008.28;275637;35;1214;-75
2022/11/20 00:09:36;;;;;;;376.03;168.10;;;;;;;12.38;100.00;99018.00;271864;35;6614;-76
2022/11/20 00:09:46;;;;;;;375.38;166.05;;;;;;;12.37;100.00;99018.94;270308;36;6922;-75
2022/11/20 00:09:57;;;;;;;373.30;165.53;;;;;;;12.33;100.00;99016.50;270639;36;1273;-76
2022/11/20 00:11:34;;;;;;;366.26;154.72;;;;;;;12.38;100.00;99010.13;2499166;27;20494;-75
2022/11/20 00:11:45;;;;;;;373.20;162.97;;;;;;;12.38;100.00;99000.50;351675;28;1210;-74
2022/11/20 00:11:55;;;;;;;374.38;163.32;;;;;;;12.40;100.00;99003.03;349089;28;1557;-76
2022/11/20 00:12:05;;;;;;;375.27;167.13;;;;;;;12.41;100.00;99009.97;349040;28;951;-76
2022/11/20 00:12:16;;;;;;;373.48;166.80;;;;;;;12.42;100.00;99001.16;349096;28;873;-76
2022/11/20 00:12:26;;;;;;;371.87;168.30;;;;;;;12.43;100.00;99008.09;350368;28;1289;-76
2022/11/20 00:12:37;;;;;;;371.10;166.10;;;;;;;12.43;100.00;99008.09;347508;28;1306;-76
2022/11/20 00:12:47;;;;;;;374.23;169.23;;;;;;;12.45;100.00;99008.84;347562;28;1302;-76
2022/11/20 00:12:58;;;;;;;374.07;169.13;;;;;;;12.45;100.00;99012.31;351076;28;1665;-76
2022/11/20 00:13:08;;;;;;;370.50;165.57;;;;;;;12.46;100.00;99013.16;348687;28;1403;-76
2022/11/20 00:13:19;;;;;;;366.45;160.35;;;;;;;12.46;100.00;99014.00;348959;28;1455;-75
2022/11/20 00:13:29;;;;;;;368.87;160.17;;;;;;;12.49;100.00;99013.00;347644;28;939;-75
2022/11/20 00:13:39;;;;;;;371.50;163.77;;;;;;;12.49;100.00;99013.00;346338;28;1104;-75
2022/11/20 00:13:54;;;;;;;375.53;166.33;;;;;;;12.49;100.00;99018.25;345461;28;4925;-74
2022/11/20 00:14:05;;;;;;;374.15;166.40;;;;;;;12.50;100.00;99014.69;344744;28;5739;-76
2022/11/20 00:14:15;;;;;;;379.53;168.50;;;;;;;12.49;100.00;99021.72;345898;28;890;-77
2022/11/20 00:14:25;;;;;;;377.08;165.18;;;;;;;12.50;100.00;99014.69;345926;28;2820;-76
2022/11/20 00:14:36;;;;;;;378.40;166.40;;;;;;;12.50;100.00;99012.91;348468;28;895;-76
2022/11/20 00:14:46;;;;;;;375.23;162.77;;;;;;;12.50;100.00;99014.69;349068;28;1014;-75
2022/11/20 00:14:57;;;;;;;379.10;164.00;;;;;;;12.51;100.00;99016.38;348982;28;983;-75
2022/11/20 00:15:08;;;;;;;382.80;166.85;;;;;;;12.51;100.00;99011.13;348938;28;894;-76
2022/11/20 00:15:18;;;;;;;383.63;170.15;;;;;;;12.50;100.00;99007.66;344938;28;881;-76
2022/11/20 00:15:29;;;;;;;381.13;169.07;;;;;;;12.52;100.00;99013.66;344933;28;1040;-76
2022/11/20 00:15:39;;;;;;;377.45;165.88;;;;;;;12.52;100.00;99008.41;344741;28;924;-76
2022/11/20 00:15:56;;;;;;;375.10;166.40;;;;;;;12.54;100.00;99005.69;343486;28;1373;-76
2022/11/20 00:16:08;;;;;;;376.45;171.40;;;;;;;12.55;100.00;99002.13;343477;28;2143;-76
2022/11/20 00:16:21;;;;;;;376.70;170.15;;;;;;;12.55;100.00;98999.50;345104;28;1395;-76
2022/11/20 00:16:32;;;;;;;374.17;166.05;;;;;;;12.54;100.00;98997.81;344895;28;1315;-75
2022/11/20 00:16:42;;;;;;;376.63;169.15;;;;;;;12.55;100.00;98999.50;344100;28;1418;-74
2022/11/20 00:16:53;;;;;;;377.30;170.18;;;;;;;12.52;100.00;99000.53;343454;28;1248;-76
2022/11/20 00:17:03;;;;;;;380.07;171.40;;;;;;;12.52;100.00;98995.28;342149;28;1232;-75
2022/11/20 00:17:13;;;;;;;378.00;170.38;;;;;;;12.53;100.00;98993.50;343849;28;1192;-76
2022/11/20 00:17:24;;;;;;;379.13;173.93;;;;;;;12.54;100.00;98995.19;342049;28;1648;-76
2022/11/20 00:17:34;;;;;;;382.77;174.17;;;;;;;12.54;100.00;98995.19;346198;28;1298;-76
2022/11/20 00:17:45;;;;;;;379.98;168.80;;;;;;;12.54;100.00;98996.03;347061;28;1039;-76
2022/11/20 00:17:55;;;;;;;379.67;167.30;;;;;;;12.54;100.00;99001.28;345036;28;1169;-76
2022/11/20 00:18:05;;;;;;;379.75;167.02;;;;;;;12.54;100.00;99000.44;342211;28;1446;-76
2022/11/20 00:18:16;;;;;;;381.50;172.13;;;;;;;12.54;100.00;98997.81;340265;28;1187;-76
2022/11/20 00:18:27;;;;;;;380.07;169.00;;;;;;;12.54;100.00;99005.69;339959;29;924;-76
2022/11/20 00:18:37;;;;;;;374.13;166.27;;;;;;;12.54;100.00;99008.31;342242;28;1051;-76
2022/11/20 00:18:48;;;;;;;373.23;166.57;;;;;;;12.54;100.00;99005.69;344723;28;1521;-76
2022/11/20 00:18:58;;;;;;;371.88;166.93;;;;;;;12.56;100.00;99011.69;343702;28;922;-76
2022/11/20 00:19:09;;;;;;;375.10;166.33;;;;;;;12.56;100.00;99014.31;344142;28;1724;-76
2022/11/20 00:19:19;;;;;;;377.70;165.27;;;;;;;12.55;100.00;99007.38;337447;29;1414;-76
2022/11/20 00:19:30;;;;;;;376.87;165.60;;;;;;;12.54;100.00;99009.16;337569;29;1232;-76
2022/11/20 00:19:40;;;;;;;374.92;165.90;;;;;;;12.53;100.00;99012.72;338611;28;1275;-76
2022/11/20 00:19:52;;;;;;;375.87;164.33;;;;;;;12.53;100.00;99010.09;342201;28;881;-76
2022/11/20 00:20:02;;;;;;;379.65;165.88;;;;;;;12.53;100.00;99014.50;339240;29;1620;-76
2022/11/20 00:20:13;;;;;;;377.23;165.30;;;;;;;12.50;100.00;99006.81;339986;28;1721;-76
2022/11/20 00:20:23;;;;;;;372.60;165.57;;;;;;;12.51;100.00;99011.97;340550;28;1926;-75
2022/11/20 00:20:34;;;;;;;369.10;163.73;;;;;;;12.52;100.00;99016.28;336865;29;1348;-75
2022/11/20 00:20:45;;;;;;;369.90;162.52;;;;;;;12.52;100.00;99007.56;339638;29;1318;-76
2022/11/20 00:21:07;;;;;;;368.55;160.93;;;;;;;12.54;100.00;99016.19;342322;28;1839;-76
2022/11/20 00:21:19;;;;;;;369.95;160.73;;;;;;;12.54;100.00;99005.69;338187;29;1056;-75
2022/11/20 00:21:29;;;;;;;369.13;162.60;;;;;;;12.53;100.00;99010.09;337318;29;1516;-76
2022/11/20 00:21:40;;;;;;;372.13;165.55;;;;;;;12.52;100.00;98999.69;336019;29;1794;-76
2022/11/20 00:21:55;;;;;;;373.53;164.57;;;;;;;12.53;100.00;99004.00;335737;29;1278;-75
2022/11/20 00:22:05;;;;;;;372.40;163.45;;;;;;;12.54;100.00;98997.81;332476;29;1326;-76
2022/11/20 00:22:16;;;;;;;367.08;161.98;;;;;;;12.54;100.00;98997.81;331365;29;2015;-75
2022/11/20 00:22:26;;;;;;;367.93;165.43;;;;;;;12.53;100.00;98996.13;329176;29;2210;-75
2022/11/20 00:22:36;;;;;;;371.85;167.70;;;;;;;12.50;100.00;98994.53;327698;30;1226;-75
2022/11/20 00:22:47;;;;;;;372.97;169.00;;;;;;;12.49;100.00;98992.00;326768;30;1615;-76
2022/11/20 00:22:57;;;;;;;376.33;166.75;;;;;;;12.46;100.00;98992.19;329724;29;3834;-76
2022/11/20 00:23:08;;;;;;;374.37;167.20;;;;;;;12.42;100.00;98990.66;326173;30;4902;-75
2022/11/20 00:23:18;;;;;;;377.77;166.77;;;;;;;12.38;100.00;98987.38;326538;30;2086;-75
2022/11/20 00:23:29;;;;;;;381.87;172.63;;;;;;;12.32;100.00;98991.19;327692;30;1901;-75
2022/11/20 00:23:39;;;;;;;386.80;175.20;;;;;;;12.30;100.00;98982.56;324130;30;3156;-75
2022/11/20 00:23:50;;;;;;;381.23;171.43;;;;;;;12.26;100.00;98977.56;326067;30;1211;-75
2022/11/20 00:24:01;;;;;;;375.25;169.85;;;;;;;12.26;100.00;98981.03;322721;30;2052;-75
2022/11/20 00:24:12;;;;;;;370.70;165.90;;;;;;;12.26;100.00;98975.81;322258;30;2269;-75
2022/11/20 00:24:22;;;;;;;373.13;166.80;;;;;;;12.26;100.00;98975.81;322185;30;1374;-75
2022/11/20 00:24:32;;;;;;;373.40;164.23;;;;;;;12.27;100.00;98977.50;323293;30;2723;-75
2022/11/20 00:24:43;;;;;;;373.88;165.38;;;;;;;12.29;100.00;98986.13;322773;30;2893;-75
2022/11/20 00:24:53;;;;;;;371.03;163.13;;;;;;;12.32;100.00;98988.56;323040;30;1931;-75
2022/11/20 00:25:04;;;;;;;372.08;161.35;;;;;;;12.32;100.00;98990.34;324457;30;1117;-75
2022/11/20 00:25:14;;;;;;;375.37;161.33;;;;;;;12.32;100.00;98991.19;326386;30;1208;-76
2022/11/20 00:25:25;;;;;;;378.57;164.60;;;;;;;12.33;100.00;98995.50;325153;30;1845;-76
2022/11/20 00:25:35;;;;;;;379.20;164.00;;;;;;;12.34;100.00;98998.97;322081;30;1304;-76
2022/11/20 00:25:45;;;;;;;375.52;163.82;;;;;;;12.33;100.00;98995.50;322817;30;2669;-76
2022/11/20 00:25:56;;;;;;;374.97;163.03;;;;;;;12.30;100.00;98998.31;319826;30;2897;-76
2022/11/20 00:26:08;;;;;;;371.50;162.32;;;;;;;12.27;100.00;98992.38;320372;30;1974;-76
2022/11/20 00:26:19;;;;;;;372.55;159.60;;;;;;;12.27;100.00;98998.47;323700;30;3167;-76
2022/11/20 00:26:30;;;;;;;375.55;161.73;;;;;;;12.25;100.00;98995.09;321700;30;2892;-76
2022/11/20 00:26:40;;;;;;;373.20;161.07;;;;;;;12.28;100.00;98994.94;316920;31;3141;-76
2022/11/20 00:26:50;;;;;;;371.33;161.60;;;;;;;12.29;100.00;98994.00;314200;31;893;-75
2022/11/20 00:27:01;;;;;;;368.73;159.20;;;;;;;12.30;100.00;99000.09;311520;31;3324;-75
2022/11/20 00:27:11;;;;;;;370.60;162.80;;;;;;;12.30;100.00;98993.06;312040;31;2541;-76
2022/11/20 00:27:21;;;;;;;375.57;168.03;;;;;;;12.32;100.00;98995.59;312220;31;1268;-76
2022/11/20 00:27:32;;;;;;;378.48;172.30;;;;;;;12.31;100.00;98991.28;318485;30;2026;-76
2022/11/20 00:27:42;;;;;;;379.60;171.70;;;;;;;12.31;100.00;98994.75;315154;31;2887;-76
2022/11/20 00:27:53;;;;;;;378.40;170.50;;;;;;;12.29;100.00;98991.38;315254;31;886;-76
2022/11/20 00:28:03;;;;;;;380.65;168.73;;;;;;;12.29;100.00;98988.75;316424;31;3666;-76
2022/11/20 00:28:14;;;;;;;380.15;168.90;;;;;;;12.29;100.00;98995.78;314225;31;4053;-76
2022/11/20 00:28:24;;;;;;;377.77;167.17;;;;;;;12.29;100.00;98991.38;309715;31;4312;-75
2022/11/20 00:28:34;;;;;;;377.10;167.93;;;;;;;12.33;100.00;99002.53;308617;32;1211;-75
2022/11/20 00:28:53;;;;;;;374.70;166.45;;;;;;;12.33;100.00;98998.13;309228;31;4113;-75
2022/11/20 00:29:03;;;;;;;372.48;166.30;;;;;;;12.35;100.00;98999.81;306967;31;4203;-75
2022/11/20 00:29:15;;;;;;;376.50;168.65;;;;;;;12.33;100.00;99003.38;306292;32;4626;-76
2022/11/20 00:29:26;;;;;;;378.58;169.85;;;;;;;12.33;100.00;99003.38;307022;32;3786;-76
2022/11/20 00:29:36;;;;;;;376.67;167.80;;;;;;;12.33;100.00;99008.63;308877;32;937;-75
2022/11/20 00:29:47;;;;;;;376.73;166.27;;;;;;;12.36;100.00;99006.75;301309;32;2734;-75
2022/11/20 00:29:57;;;;;;;378.93;167.97;;;;;;;12.36;100.00;99006.75;300436;32;4308;-75
2022/11/20 00:30:08;;;;;;;381.15;170.68;;;;;;;12.36;100.00;99004.13;302273;32;896;-75
2022/11/20 00:30:18;;;;;;;381.13;173.50;;;;;;;12.37;100.00;99008.44;299129;33;1095;-76
2022/11/20 00:30:29;;;;;;;377.73;173.23;;;;;;;12.36;100.00;99012.00;294300;33;6480;-75
2022/11/20 00:30:39;;;;;;;374.45;170.48;;;;;;;12.37;100.00;99005.81;290633;33;5129;-75
2022/11/20 00:30:51;;;;;;;376.00;167.87;;;;;;;12.38;100.00;98999.66;292254;33;933;-75
2022/11/20 00:31:09;;;;;;;379.02;162.15;;;;;;;12.40;100.00;99005.66;291487;33;5698;-76
2022/11/20 00:31:19;;;;;;;377.50;161.77;;;;;;;12.38;100.00;98999.66;290103;34;903;-75
2022/11/20 00:31:30;;;;;;;374.75;166.60;;;;;;;12.36;100.00;99001.50;290020;33;5774;-75
2022/11/20 00:31:40;;;;;;;373.70;165.77;;;;;;;12.31;100.00;99000.00;289302;33;5012;-75
2022/11/20 00:31:51;;;;;;;374.55;169.43;;;;;;;12.30;100.00;98997.47;292200;33;1807;-75
2022/11/20 00:32:02;;;;;;;379.07;166.93;;;;;;;12.28;100.00;98994.94;287817;34;4335;-75
2022/11/20 00:32:12;;;;;;;378.00;166.05;;;;;;;12.29;100.00;98998.38;283275;34;7233;-74
2022/11/20 00:32:23;;;;;;;376.52;163.45;;;;;;;12.28;100.00;98994.94;281146;35;6093;-74
2022/11/20 00:32:33;;;;;;;372.70;164.20;;;;;;;12.28;100.00;98994.94;282755;34;9159;-74
2022/11/20 00:34:09;;;;;;;362.57;153.22;;;;;;;12.41;100.00;99002.09;2501186;27;20268;-76
2022/11/20 00:34:19;;;;;;;374.20;158.27;;;;;;;12.43;100.00;99002.84;353103;28;914;-76
2022/11/20 00:34:30;;;;;;;373.73;157.00;;;;;;;12.43;100.00;99010.72;350324;28;1704;-76
2022/11/20 00:34:40;;;;;;;370.15;160.90;;;;;;;12.42;100.00;99009.03;350395;28;834;-76
2022/11/20 00:34:51;;;;;;;371.40;163.40;;;;;;;12.42;100.00;99003.78;348903;28;1077;-77
2022/11/20 00:35:01;;;;;;;369.98;165.57;;;;;;;12.42;100.00;99006.41;347653;28;1134;-76
2022/11/20 00:35:11;;;;;;;369.70;163.27;;;;;;;12.43;100.00;99002.84;349392;28;1375;-76
2022/11/20 00:35:22;;;;;;;368.83;159.87;;;;;;;12.44;100.00;99009.78;347637;28;865;-76
2022/11/20 00:35:32;;;;;;;371.50;159.18;;;;;;;12.45;100.00;99011.47;348180;28;1416;-76
2022/11/20 00:35:43;;;;;;;374.47;163.60;;;;;;;12.45;100.00;99008.84;345945;28;1268;-75
2022/11/20 00:35:53;;;;;;;377.35;166.27;;;;;;;12.45;100.00;99011.47;348879;28;1453;-75
2022/11/20 00:36:10;;;;;;;378.30;168.90;;;;;;;12.40;100.00;99014.38;349679;28;1813;-76
2022/11/20 00:36:22;;;;;;;374.08;164.63;;;;;;;12.30;100.00;99008.81;348977;28;871;-75
2022/11/20 00:36:33;;;;;;;368.98;161.55;;;;;;;12.28;100.00;99005.41;348414;28;913;-75
2022/11/20 00:36:43;;;;;;;375.77;162.67;;;;;;;12.25;100.00;99010.84;351920;28;973;-76
2022/11/20 00:36:54;;;;;;;375.55;160.80;;;;;;;12.25;100.00;99010.84;349002;28;977;-76
2022/11/20 00:37:04;;;;;;;379.53;163.40;;;;;;;12.24;100.00;99006.53;350430;28;946;-76
2022/11/20 00:37:15;;;;;;;369.83;161.82;;;;;;;12.25;100.00;99010.84;351502;28;1397;-76
2022/11/20 00:37:25;;;;;;;372.80;164.43;;;;;;;12.25;100.00;99010.84;346283;28;832;-76
2022/11/20 00:37:36;;;;;;;368.05;162.73;;;;;;;12.28;100.00;99013.28;346369;28;1244;-76
2022/11/20 00:37:46;;;;;;;369.10;159.40;;;;;;;12.32;100.00;99008.72;349079;28;1201;-76
2022/11/20 00:37:56;;;;;;;370.35;158.23;;;;;;;12.33;100.00;99013.03;348956;28;1311;-76
2022/11/20 00:38:07;;;;;;;376.43;161.27;;;;;;;12.36;100.00;99017.25;348874;28;1347;-75
2022/11/20 00:38:17;;;;;;;374.67;162.52;;;;;;;12.38;100.00;99012.75;348596;28;1315;-75
2022/11/20 00:38:28;;;;;;;371.73;162.10;;;;;;;12.40;100.00;99013.53;347522;28;1250;-75
2022/11/20 00:38:38;;;;;;;369.90;158.07;;;;;;;12.41;100.00;99009.97;350397;28;1326;-75
2022/11/20 00:38:56;;;;;;;371.63;159.05;;;;;;;12.43;100.00;99014.19;348688;28;1603;-74
2022/11/20 00:39:06;;;;;;;371.23;161.65;;;;;;;12.42;100.00;99001.16;344713;28;953;-75
2022/11/20 00:39:16;;;;;;;372.07;160.93;;;;;;;12.44;100.00;99007.16;346334;28;820;-75
2022/11/20 00:39:27;;;;;;;374.23;163.63;;;;;;;12.45;100.00;99006.22;349117;28;836;-76
2022/11/20 00:39:38;;;;;;;371.30;161.03;;;;;;;12.46;100.00;99000.88;346543;28;1703;-76
2022/11/20 00:39:48;;;;;;;369.67;159.95;;;;;;;12.47;100.00;99004.38;346965;28;953;-76
2022/11/20 00:39:58;;;;;;;371.07;159.67;;;;;;;12.48;100.00;99006.06;346341;28;1155;-75
2022/11/20 00:40:09;;;;;;;370.63;160.80;;;;;;;12.49;100.00;98992.00;343497;28;1327;-75
2022/11/20 00:40:20;;;;;;;369.27;161.30;;;;;;;12.50;100.00;98993.69;344682;28;1273;-75
2022/11/20 00:40:30;;;;;;;370.03;160.03;;;;;;;12.48;100.00;99001.66;347259;28;1324;-75
2022/11/20 00:40:40;;;;;;;365.60;154.57;;;;;;;12.48;100.00;98992.94;343661;28;846;-76
2022/11/20 00:41:17;;;;;;;367.17;155.40;;;;;;;12.50;100.00;98991.06;345732;28;1185;-76
2022/11/20 00:41:28;;;;;;;371.98;161.92;;;;;;;12.50;100.00;98988.44;338922;28;4917;-75
2022/11/20 00:41:38;;;;;;;372.35;162.68;;;;;;;12.52;100.00;98991.81;339197;29;5796;-75
2022/11/20 00:41:49;;;;;;;376.10;166.17;;;;;;;12.53;100.00;98985.63;337035;29;2052;-75
2022/11/20 00:41:59;;;;;;;377.93;165.23;;;;;;;12.52;100.00;98997.06;336014;29;2308;-75
2022/11/20 00:42:09;;;;;;;378.52;165.10;;;;;;;12.51;100.00;98990.13;338186;29;848;-75
2022/11/20 00:42:20;;;;;;;375.60;164.33;;;;;;;12.52;100.00;98997.06;342022;28;1279;-74
2022/11/20 00:42:32;;;;;;;372.98;166.85;;;;;;;12.52;100.00;98990.03;344064;28;974;-74
2022/11/20 00:42:42;;;;;;;374.73;168.93;;;;;;;12.52;100.00;98991.81;343229;28;1115;-74
2022/11/20 00:42:53;;;;;;;374.30;167.18;;;;;;;12.52;100.00;98997.06;338272;29;1289;-74
2022/11/20 00:43:03;;;;;;;373.43;162.90;;;;;;;12.51;100.00;98992.75;339009;29;1985;-75
2022/11/20 00:43:14;;;;;;;370.33;160.87;;;;;;;12.52;100.00;98994.44;337162;29;1727;-74
2022/11/20 00:43:26;;;;;;;374.47;163.63;;;;;;;12.52;100.00;98991.81;338264;29;1325;-75
2022/11/20 00:43:36;;;;;;;373.83;165.65;;;;;;;12.53;100.00;98998.75;343102;28;1322;-76
2022/11/20 00:43:47;;;;;;;375.02;164.20;;;;;;;12.51;100.00;98995.38;341365;28;1330;-75
2022/11/20 00:43:57;;;;;;;369.90;164.47;;;;;;;12.52;100.00;98991.81;339599;29;965;-75
2022/11/20 00:44:08;;;;;;;371.67;165.20;;;;;;;12.51;100.00;98998.00;338319;29;851;-75
2022/11/20 00:44:18;;;;;;;375.70;168.03;;;;;;;12.53;100.00;98996.97;337875;29;1495;-76
2022/11/20 00:44:28;;;;;;;376.20;166.37;;;;;;;12.53;100.00;98990.88;334021;29;1416;-76
2022/11/20 00:44:40;;;;;;;375.80;166.63;;;;;;;12.53;100.00;98993.50;334334;29;1638;-76
2022/11/20 00:44:50;;;;;;;373.54;164.70;;;;;;;12.53;100.00;98996.97;336006;29;1539;-76
2022/11/20 00:45:01;;;;;;;374.10;167.13;;;;;;;12.54;100.00;99005.69;335340;29;1714;-76
2022/11/20 00:45:11;;;;;;;372.97;169.93;;;;;;;12.54;100.00;99000.44;338294;29;1315;-75
2022/11/20 00:45:22;;;;;;;371.58;169.63;;;;;;;12.55;100.00;98996.88;339132;29;1711;-76
2022/11/20 00:45:32;;;;;;;371.70;169.13;;;;;;;12.55;100.00;98997.72;339383;29;1306;-75
2022/11/20 00:45:42;;;;;;;374.45;165.20;;;;;;;12.55;100.00;98999.50;336824;29;1569;-75
2022/11/20 00:46:06;;;;;;;378.93;166.07;;;;;;;12.56;100.00;98990.69;336855;29;1192;-76
2022/11/20 00:46:18;;;;;;;371.58;162.10;;;;;;;12.56;100.00;98998.56;330562;29;1744;-75
2022/11/20 00:46:28;;;;;;;368.70;161.40;;;;;;;12.53;100.00;98996.13;328329;29;2135;-75
2022/11/20 00:46:39;;;;;;;371.50;165.95;;;;;;;12.52;100.00;98995.28;330091;29;1384;-76
2022/11/20 00:46:49;;;;;;;371.53;167.37;;;;;;;12.53;100.00;98993.50;330015;29;2002;-75
2022/11/20 00:47:00;;;;;;;371.43;166.20;;;;;;;12.51;100.00;98992.75;328816;30;2659;-76
2022/11/20 00:47:10;;;;;;;370.27;161.63;;;;;;;12.49;100.00;98986.75;326449;30;1234;-76
2022/11/20 00:47:21;;;;;;;370.83;162.97;;;;;;;12.50;100.00;98991.06;329674;29;2360;-76
2022/11/20 00:47:31;;;;;;;372.70;167.20;;;;;;;12.49;100.00;98992.00;330954;29;1509;-76
2022/11/20 00:47:41;;;;;;;378.13;169.77;;;;;;;12.49;100.00;98992.00;334468;29;870;-76
2022/11/20 00:47:52;;;;;;;375.48;168.32;;;;;;;12.48;100.00;98995.56;329043;29;1489;-76
2022/11/20 00:48:02;;;;;;;376.87;168.87;;;;;;;12.48;100.00;98995.56;329990;29;2304;-75
2022/11/20 00:48:13;;;;;;;376.45;168.43;;;;;;;12.50;100.00;99001.56;328746;29;2659;-75
2022/11/20 00:48:23;;;;;;;379.93;171.53;;;;;;;12.51;100.00;99005.88;327035;30;1321;-75
2022/11/20 00:48:34;;;;;;;377.02;169.18;;;;;;;12.50;100.00;99004.19;328697;29;2508;-75
2022/11/20 00:48:44;;;;;;;377.77;170.37;;;;;;;12.50;100.00;99004.19;326144;30;2509;-76
2022/11/20 00:48:55;;;;;;;371.92;165.75;;;;;;;12.51;100.00;99006.72;323361;30;972;-76
2022/11/20 00:49:05;;;;;;;371.43;167.93;;;;;;;12.51;100.00;99008.50;324030;30;2892;-76
2022/11/20 00:49:15;;;;;;;371.63;168.02;;;;;;;12.51;100.00;99005.88;321618;30;2932;-76
2022/11/20 00:49:26;;;;;;;375.10;166.40;;;;;;;12.51;100.00;99011.13;323417;30;888;-76
2022/11/20 00:49:36;;;;;;;374.00;161.95;;;;;;;12.51;100.00;99011.13;323688;30;2796;-76
2022/11/20 00:49:46;;;;;;;374.20;165.07;;;;;;;12.51;100.00;99014.59;322537;30;2145;-76
2022/11/20 00:49:57;;;;;;;374.43;166.93;;;;;;;12.51;100.00;99009.34;323436;30;841;-76
2022/11/20 00:50:08;;;;;;;375.83;169.90;;;;;;;12.50;100.00;99014.69;322687;30;2484;-76
2022/11/20 00:50:18;;;;;;;374.50;167.35;;;;;;;12.50;100.00;99009.44;322793;30;2986;-75
2022/11/20 00:50:29;;;;;;;372.83;165.63;;;;;;;12.49;100.00;99011.22;321740;30;3542;-75
2022/11/20 00:50:39;;;;;;;374.02;168.02;;;;;;;12.49;100.00;99005.13;315883;30;5575;-75
2022/11/20 00:50:50;;;;;;;379.95;171.18;;;;;;;12.48;100.00;99004.28;314581;31;5376;-76
2022/11/20 00:51:00;;;;;;;380.13;173.60;;;;;;;12.49;100.00;99007.75;313938;31;3945;-75
2022/11/20 00:51:12;;;;;;;375.03;171.83;;;;;;;12.48;100.00;99013.94;316096;31;3256;-75
2022/11/20 00:51:24;;;;;;;370.75;167.82;;;;;;;12.42;100.00;99006.41;315015;31;4253;-75
2022/11/20 00:51:35;;;;;;;370.38;162.00;;;;;;;12.38;100.00;99005.75;313756;31;3863;-76
2022/11/20 00:51:45;;;;;;;369.50;157.07;;;;;;;12.34;100.00;99006.84;311237;31;4013;-75
2022/11/20 00:51:56;;;;;;;371.42;158.43;;;;;;;12.32;100.00;99001.69;305312;32;1247;-75
2022/11/20 00:52:06;;;;;;;372.80;160.57;;;;;;;12.31;100.00;99001.78;304499;32;2979;-75
2022/11/20 00:52:17;;;;;;;375.40;165.63;;;;;;;12.30;100.00;99003.56;301169;32;3360;-75
2022/11/20 00:52:27;;;;;;;374.17;170.20;;;;;;;12.30;100.00;99003.56;301237;32;1568;-75
2022/11/20 00:52:37;;;;;;;374.02;171.75;;;;;;;12.29;100.00;98995.78;298943;32;4199;-75
2022/11/20 00:52:48;;;;;;;376.97;174.03;;;;;;;12.32;100.00;99006.94;296644;33;5245;-75